createdAt,value
2018-08-25T00:02:13.140Z,78.05
2018-08-25T00:04:41.455Z,78.10
2018-08-25T00:07:09.766Z,78.09
2018-08-25T00:09:38.660Z,78.22
2018-08-25T00:12:06.394Z,78.15
2018-08-25T00:14:34.729Z,77.93
2018-08-25T00:17:03.621Z,77.91
2018-08-25T00:19:31.359Z,77.81
2018-08-25T00:22:00.246Z,77.61
2018-08-25T00:24:28.557Z,77.53
2018-08-25T00:26:56.295Z,77.63
2018-08-25T00:29:24.606Z,77.53
2018-08-25T00:31:53.492Z,77.74
2018-08-25T00:34:21.853Z,77.75
2018-08-25T00:36:49.590Z,77.49
2018-08-25T00:39:17.922Z,77.19
2018-08-25T00:41:46.237Z,77.16
2018-08-25T00:44:15.130Z,77.17
2018-08-25T00:46:43.443Z,77.06
2018-08-25T00:49:11.761Z,76.92
2018-08-25T00:51:40.081Z,76.83
2018-08-25T00:54:08.394Z,76.65
2018-08-25T00:56:36.138Z,76.56
2018-08-25T00:59:05.033Z,76.58
2018-08-25T01:01:32.772Z,76.64
2018-08-25T01:04:01.669Z,76.64
2018-08-25T01:06:29.981Z,76.72
2018-08-25T01:08:57.725Z,76.73
2018-08-25T01:11:26.623Z,76.70
2018-08-25T01:13:54.369Z,76.77
2018-08-25T01:16:22.687Z,76.78
2018-08-25T01:18:51.006Z,76.88
2018-08-25T01:21:19.318Z,76.90
2018-08-25T01:23:47.637Z,76.79
2018-08-25T01:26:15.972Z,76.93
2018-08-25T01:28:44.282Z,77.01
2018-08-25T01:31:13.173Z,77.19
2018-08-25T01:33:40.916Z,76.96
2018-08-25T01:36:09.264Z,76.95
2018-08-25T01:38:38.153Z,76.74
2018-08-25T01:41:05.881Z,76.61
2018-08-25T01:43:34.785Z,76.41
2018-08-25T01:46:03.095Z,76.29
2018-08-25T01:48:30.833Z,76.60
2018-08-25T01:50:59.141Z,76.65
2018-08-25T01:53:27.470Z,76.58
2018-08-25T01:55:56.112Z,76.49
2018-08-25T01:58:24.435Z,76.52
2018-08-25T02:00:53.072Z,76.61
2018-08-25T02:03:21.969Z,76.61
2018-08-25T02:05:49.705Z,76.70
2018-08-25T02:08:18.607Z,77.11
2018-08-25T02:10:47.147Z,77.47
2018-08-25T02:13:15.229Z,77.48
2018-08-25T02:15:43.841Z,77.59
2018-08-25T02:18:12.165Z,77.82
2018-08-25T02:20:40.477Z,78.20
2018-08-25T02:23:08.797Z,78.40
2018-08-25T02:25:37.157Z,78.29
2018-08-25T02:28:05.525Z,78.77
2018-08-25T02:30:33.224Z,79.01
2018-08-25T02:33:02.132Z,79.35
2018-08-25T02:35:30.464Z,79.29
2018-08-25T02:37:58.209Z,79.38
2018-08-25T02:40:27.123Z,79.23
2018-08-25T02:42:55.726Z,79.04
2018-08-25T02:45:24.042Z,78.80
2018-08-25T02:47:51.778Z,78.67
2018-08-25T02:50:20.685Z,78.47
2018-08-25T02:52:49.008Z,78.39
2018-08-25T02:55:16.745Z,78.26
2018-08-25T02:57:45.061Z,78.32
2018-08-25T03:00:13.391Z,78.51
2018-08-25T03:02:42.290Z,78.41
2018-08-25T03:05:10.029Z,78.10
2018-08-25T03:07:38.922Z,78.06
2018-08-25T03:10:07.233Z,78.13
2018-08-25T03:12:35.560Z,77.60
2018-08-25T03:15:03.654Z,77.61
2018-08-25T03:17:31.606Z,77.56
2018-08-25T03:20:00.497Z,77.57
2018-08-25T03:22:28.271Z,77.68
2018-08-25T03:24:56.576Z,77.66
2018-08-25T03:27:24.853Z,77.41
2018-08-25T03:29:53.177Z,77.59
2018-08-25T03:32:21.501Z,77.78
2018-08-25T03:34:49.830Z,77.74
2018-08-25T03:37:18.274Z,78.00
2018-08-25T03:39:46.478Z,78.10
2018-08-25T03:42:14.794Z,78.15
2018-08-25T03:44:43.114Z,78.01
2018-08-25T03:47:11.440Z,77.96
2018-08-25T03:49:39.753Z,77.90
2018-08-25T03:52:08.646Z,77.84
2018-08-25T03:54:36.385Z,77.44
2018-08-25T03:57:05.272Z,77.94
2018-08-25T03:59:33.586Z,78.61
2018-08-25T04:02:01.677Z,78.68
2018-08-25T04:04:30.213Z,78.58
2018-08-25T04:06:57.952Z,78.27
2018-08-25T04:09:26.849Z,77.96
2018-08-25T04:11:54.583Z,77.93
2018-08-25T04:14:22.897Z,78.11
2018-08-25T04:16:51.795Z,77.65
2018-08-25T04:19:19.536Z,77.64
2018-08-25T04:21:48.432Z,77.22
2018-08-25T04:24:16.748Z,77.43
2018-08-25T04:26:45.057Z,77.37
2018-08-25T04:29:13.385Z,77.18
2018-08-25T04:31:41.110Z,77.48
2018-08-25T04:34:09.429Z,77.58
2018-08-25T04:36:37.746Z,77.69
2018-08-25T04:39:06.073Z,77.66
2018-08-25T04:41:35.794Z,77.46
2018-08-25T04:44:03.531Z,77.40
2018-08-25T04:46:31.850Z,77.13
2018-08-25T04:49:00.733Z,76.85
2018-08-25T04:51:29.062Z,76.71
2018-08-25T04:53:56.797Z,76.74
2018-08-25T04:56:25.699Z,76.78
2018-08-25T04:58:53.430Z,76.73
2018-08-25T05:01:21.821Z,76.83
2018-08-25T05:03:50.643Z,76.95
2018-08-25T05:06:18.384Z,77.13
2018-08-25T05:08:47.261Z,76.63
2018-08-25T05:11:15.006Z,76.63
2018-08-25T05:13:43.322Z,76.67
2018-08-25T05:16:11.634Z,76.94
2018-08-25T05:18:39.954Z,77.25
2018-08-25T05:21:08.577Z,77.35
2018-08-25T05:23:36.601Z,77.31
2018-08-25T05:26:04.913Z,77.41
2018-08-25T05:28:33.229Z,77.56
2018-08-25T05:31:01.547Z,77.98
2018-08-25T05:33:30.445Z,78.35
2018-08-25T05:35:58.766Z,78.72
2018-08-25T05:38:26.495Z,79.20
2018-08-25T05:40:55.402Z,79.07
2018-08-25T05:43:23.170Z,78.87
2018-08-25T05:45:52.063Z,78.91
2018-08-25T05:48:20.380Z,78.79
2018-08-25T05:50:48.707Z,79.17
2018-08-25T05:53:16.437Z,79.54
2018-08-25T05:55:45.336Z,79.78
2018-08-25T05:58:13.067Z,79.92
2018-08-25T06:00:41.420Z,80.11
2018-08-25T06:03:09.737Z,80.51
2018-08-25T06:05:38.045Z,80.76
2018-08-25T06:08:06.366Z,80.81
2018-08-25T06:10:34.674Z,80.69
2018-08-25T06:13:02.981Z,80.55
2018-08-25T06:15:31.295Z,80.61
2018-08-25T06:17:59.606Z,80.83
2018-08-25T06:20:28.502Z,80.98
2018-08-25T06:22:56.809Z,81.04
2018-08-25T06:25:25.125Z,80.71
2018-08-25T06:27:52.863Z,80.16
2018-08-25T06:30:21.629Z,80.36
2018-08-25T06:32:50.066Z,80.02
2018-08-25T06:35:17.810Z,80.07
2018-08-25T06:37:46.508Z,80.36
2018-08-25T06:40:15.017Z,80.24
2018-08-25T06:42:42.755Z,80.12
2018-08-25T06:45:11.666Z,79.39
2018-08-25T06:47:39.404Z,79.31
2018-08-25T06:50:08.565Z,78.98
2018-08-25T06:52:36.308Z,78.91
2018-08-25T06:55:05.200Z,78.92
2018-08-25T06:57:32.938Z,78.70
2018-08-25T07:00:01.827Z,78.95
2018-08-25T07:02:30.132Z,78.88
2018-08-25T07:04:57.866Z,78.71
2018-08-25T07:07:26.762Z,78.34
2018-08-25T07:09:54.497Z,77.90
2018-08-25T07:12:23.388Z,77.50
2018-08-25T07:14:51.135Z,77.70
2018-08-25T07:17:19.460Z,77.58
2018-08-25T07:19:47.788Z,78.02
2018-08-25T07:22:16.690Z,78.15
2018-08-25T07:24:44.422Z,77.96
2018-08-25T07:27:12.761Z,77.42
2018-08-25T07:29:41.632Z,77.21
2018-08-25T07:32:10.021Z,77.03
2018-08-25T07:34:38.280Z,76.30
2018-08-25T07:37:06.025Z,76.11
2018-08-25T07:39:34.969Z,75.92
2018-08-25T07:42:02.730Z,75.99
2018-08-25T07:44:31.053Z,76.13
2018-08-25T07:46:59.996Z,76.71
2018-08-25T07:49:28.407Z,76.64
2018-08-25T07:51:56.724Z,76.64
2018-08-25T07:54:24.469Z,76.71
2018-08-25T07:56:52.787Z,76.49
2018-08-25T07:59:21.757Z,76.33
2018-08-25T08:01:49.991Z,76.15
2018-08-25T08:04:18.310Z,75.29
2018-08-25T08:06:46.637Z,74.63
2018-08-25T08:09:15.301Z,75.01
2018-08-25T08:11:43.474Z,74.67
2018-08-25T08:14:11.743Z,74.22
2018-08-25T08:16:39.481Z,74.25
2018-08-25T08:19:08.857Z,73.70
2018-08-25T08:21:36.601Z,73.39
2018-08-25T08:24:05.496Z,73.25
2018-08-25T08:26:33.236Z,72.70
2018-08-25T08:29:02.148Z,72.39
2018-08-25T08:31:30.470Z,72.64
2018-08-25T08:33:59.120Z,72.46
2018-08-25T08:36:27.446Z,72.60
2018-08-25T08:38:55.764Z,72.61
2018-08-25T08:41:23.512Z,71.22
2018-08-25T08:43:52.405Z,71.46
2018-08-25T08:46:20.129Z,71.18
2018-08-25T08:48:48.534Z,71.18
2018-08-25T08:51:16.949Z,69.96
2018-08-25T08:53:45.175Z,69.96
2018-08-25T08:56:13.527Z,70.11
2018-08-25T08:58:42.396Z,70.04
2018-08-25T09:01:10.716Z,70.21
2018-08-25T09:03:38.456Z,69.00
2018-08-25T09:06:06.791Z,69.11
2018-08-25T09:08:35.700Z,69.06
2018-08-25T09:11:04.020Z,69.07
2018-08-25T09:13:32.336Z,68.32
2018-08-25T09:16:00.651Z,68.51
2018-08-25T09:18:28.962Z,68.26
2018-08-25T09:20:57.280Z,66.77
2018-08-25T09:23:25.755Z,65.75
2018-08-25T09:25:54.683Z,66.17
2018-08-25T09:28:23.167Z,66.90
2018-08-25T09:30:51.505Z,67.06
2018-08-25T09:33:20.077Z,66.86
2018-08-25T09:35:48.496Z,66.65
2018-08-25T09:38:16.984Z,65.17
2018-08-25T09:40:45.356Z,65.17
2018-08-25T09:43:13.757Z,64.56
2018-08-25T09:45:42.357Z,64.13
2018-08-25T09:48:10.714Z,61.75
2018-08-25T09:50:39.065Z,63.59
2018-08-25T09:53:07.387Z,64.20
2018-08-25T09:55:35.842Z,61.60
2018-08-25T09:58:04.343Z,62.77
2018-08-25T10:00:32.198Z,62.84
2018-08-25T10:03:01.470Z,60.74
2018-08-25T10:05:29.173Z,61.85
2018-08-25T10:07:58.326Z,61.87
2018-08-25T10:10:26.686Z,60.46
2018-08-25T10:12:54.962Z,60.73
2018-08-25T10:15:23.308Z,61.10
2018-08-25T10:17:51.625Z,60.96
2018-08-25T10:20:19.414Z,61.74
2018-08-25T10:22:47.790Z,61.93
2018-08-25T10:25:16.815Z,60.28
2018-08-25T10:27:45.146Z,59.53
2018-08-25T10:30:13.550Z,59.91
2018-08-25T10:32:41.862Z,58.45
2018-08-25T10:35:10.183Z,59.12
2018-08-25T10:37:37.952Z,59.08
2018-08-25T10:40:06.878Z,57.43
2018-08-25T10:42:35.193Z,58.11
2018-08-25T10:45:02.936Z,57.98
2018-08-25T10:47:31.263Z,58.85
2018-08-25T10:50:00.206Z,59.31
2018-08-25T10:52:27.981Z,59.10
2018-08-25T10:54:56.880Z,58.94
2018-08-25T10:57:25.196Z,57.73
2018-08-25T10:59:53.525Z,57.50
2018-08-25T11:02:21.859Z,57.38
2018-08-25T11:04:50.488Z,57.47
2018-08-25T11:07:19.047Z,58.15
2018-08-25T11:09:47.155Z,57.97
2018-08-25T11:12:14.898Z,56.93
2018-08-25T11:14:43.801Z,58.15
2018-08-25T11:17:11.558Z,57.61
2018-08-25T11:19:40.459Z,57.49
2018-08-25T11:22:08.253Z,56.80
2018-08-25T11:24:37.177Z,57.20
2018-08-25T11:27:04.919Z,56.62
2018-08-25T11:29:33.818Z,56.93
2018-08-25T11:32:02.157Z,55.45
2018-08-25T11:34:30.468Z,55.13
2018-08-25T11:36:58.242Z,53.43
2018-08-25T11:39:27.139Z,53.08
2018-08-25T11:41:54.884Z,54.18
2018-08-25T11:44:23.240Z,53.24
2018-08-25T11:46:52.213Z,52.19
2018-08-25T11:49:19.950Z,52.84
2018-08-25T11:51:49.179Z,51.01
2018-08-25T11:54:16.989Z,48.64
2018-08-25T11:56:45.937Z,48.75
2018-08-25T11:59:14.257Z,48.85
2018-08-25T12:01:42.579Z,48.22
2018-08-25T12:04:10.995Z,47.96
2018-08-25T12:06:39.314Z,48.22
2018-08-25T12:09:07.688Z,47.71
2018-08-25T12:11:36.022Z,47.40
2018-08-25T12:14:03.774Z,48.16
2018-08-25T12:16:32.105Z,47.99
2018-08-25T12:19:00.981Z,47.11
2018-08-25T12:21:29.302Z,48.20
2018-08-25T12:23:57.636Z,48.84
2018-08-25T12:26:25.940Z,48.79
2018-08-25T12:28:54.250Z,49.48
2018-08-25T12:31:21.990Z,48.87
2018-08-25T12:33:50.305Z,49.04
2018-08-25T12:36:19.212Z,48.57
2018-08-25T12:38:47.528Z,47.71
2018-08-25T12:41:15.365Z,48.13
2018-08-25T12:43:45.227Z,47.96
2018-08-25T12:46:13.595Z,47.59
2018-08-25T12:48:41.338Z,47.50
2018-08-25T12:51:09.710Z,46.90
2018-08-25T12:53:38.661Z,46.77
2018-08-25T12:56:06.511Z,46.48
2018-08-25T12:58:35.685Z,47.02
2018-08-25T13:01:03.510Z,47.03
2018-08-25T13:03:32.444Z,45.75
2018-08-25T13:06:02.090Z,44.85
2018-08-25T13:08:28.490Z,45.47
2018-08-25T13:10:57.425Z,44.91
2018-08-25T13:13:26.061Z,44.21
2018-08-25T13:15:54.557Z,43.55
2018-08-25T13:18:23.183Z,44.13
2018-08-25T13:20:51.416Z,44.82
2018-08-25T13:23:19.830Z,44.84
2018-08-25T13:25:48.333Z,42.86
2018-08-25T13:28:16.547Z,42.85
2018-08-25T13:30:45.003Z,42.62
2018-08-25T13:33:12.863Z,42.63
2018-08-25T13:35:41.772Z,42.04
2018-08-25T13:38:10.313Z,42.56
2018-08-25T13:40:38.747Z,43.14
2018-08-25T13:43:07.497Z,43.90
2018-08-25T13:45:35.857Z,43.96
2018-08-25T13:48:04.227Z,43.68
2018-08-25T13:50:32.580Z,43.74
2018-08-25T13:53:00.942Z,43.35
2018-08-25T13:55:29.592Z,42.83
2018-08-25T13:57:57.856Z,42.25
2018-08-25T14:00:26.243Z,42.57
2018-08-25T14:02:54.222Z,41.86
2018-08-25T14:05:22.332Z,42.44
2018-08-25T14:07:51.451Z,42.25
2018-08-25T14:10:19.790Z,42.00
2018-08-25T14:12:48.244Z,41.93
2018-08-25T14:15:16.722Z,41.67
2018-08-25T14:17:45.060Z,42.57
2018-08-25T14:20:12.886Z,42.30
2018-08-25T14:22:42.435Z,42.60
2018-08-25T14:25:10.803Z,42.56
2018-08-25T14:27:39.137Z,41.98
2018-08-25T14:30:07.523Z,41.75
2018-08-25T14:32:35.856Z,41.64
2018-08-25T14:35:04.163Z,42.22
2018-08-25T14:37:32.721Z,42.67
2018-08-25T14:40:01.265Z,41.94
2018-08-25T14:42:29.482Z,40.56
2018-08-25T14:44:57.615Z,39.33
2018-08-25T14:47:26.206Z,38.11
2018-08-25T14:49:54.532Z,36.94
2018-08-25T14:52:22.848Z,35.80
2018-08-25T14:54:50.626Z,33.28
2018-08-25T14:57:19.524Z,34.79
2018-08-25T14:59:47.907Z,33.41
2018-08-25T15:02:16.232Z,33.59
2018-08-25T15:04:44.578Z,32.69
2018-08-25T15:07:12.996Z,31.30
2018-08-25T15:09:41.374Z,32.25
2018-08-25T15:12:09.709Z,32.79
2018-08-25T15:14:38.037Z,33.73
2018-08-25T15:17:06.446Z,34.79
2018-08-25T15:19:34.785Z,36.05
2018-08-25T15:22:03.287Z,38.46
2018-08-25T15:24:31.620Z,40.10
2018-08-25T15:26:59.375Z,41.65
2018-08-25T15:29:29.104Z,42.64
2018-08-25T15:31:56.073Z,43.67
2018-08-25T15:34:25.130Z,44.82
2018-08-25T15:36:53.560Z,45.37
2018-08-25T15:39:21.905Z,46.25
2018-08-25T15:41:50.495Z,46.83
2018-08-25T15:44:18.859Z,47.58
2018-08-25T15:46:47.353Z,47.85
2018-08-25T15:49:17.049Z,48.20
2018-08-25T15:51:44.965Z,48.38
2018-08-25T15:54:12.632Z,46.97
2018-08-25T15:56:41.557Z,45.59
2018-08-25T15:59:09.942Z,44.84
2018-08-25T16:01:38.349Z,43.79
2018-08-25T16:04:06.875Z,43.20
2018-08-25T16:06:35.197Z,43.58
2018-08-25T16:09:02.926Z,44.00
2018-08-25T16:11:31.276Z,44.43
2018-08-25T16:13:59.574Z,45.32
2018-08-25T16:16:28.480Z,46.55
2018-08-25T16:18:56.231Z,47.31
2018-08-25T16:21:25.140Z,47.87
2018-08-25T16:23:53.538Z,48.83
2018-08-25T16:26:21.854Z,49.37
2018-08-25T16:28:50.201Z,50.09
2018-08-25T16:31:18.019Z,51.02
2018-08-25T16:33:46.838Z,50.76
2018-08-25T16:36:15.820Z,51.01
2018-08-25T16:38:44.154Z,51.40
2018-08-25T16:41:12.574Z,51.77
2018-08-25T16:43:40.903Z,51.78
2018-08-25T16:46:09.260Z,51.86
2018-08-25T16:48:37.584Z,51.87
2018-08-25T16:51:05.916Z,52.00
2018-08-25T16:53:34.419Z,51.99
2018-08-25T16:56:02.893Z,52.07
2018-08-25T16:58:31.175Z,52.43
2018-08-25T17:00:58.923Z,52.79
2018-08-25T17:03:27.838Z,52.79
2018-08-25T17:05:56.206Z,53.14
2018-08-25T17:08:24.699Z,53.70
2018-08-25T17:10:53.039Z,54.04
2018-08-25T17:13:21.391Z,54.38
2018-08-25T17:15:49.175Z,54.88
2018-08-25T17:18:18.133Z,55.35
2018-08-25T17:20:46.467Z,55.75
2018-08-25T17:23:14.831Z,55.94
2018-08-25T17:25:43.130Z,56.17
2018-08-25T17:28:11.449Z,56.44
2018-08-25T17:30:39.782Z,56.67
2018-08-25T17:33:08.471Z,56.87
2018-08-25T17:35:36.744Z,57.04
2018-08-25T17:38:05.512Z,57.11
2018-08-25T17:40:33.250Z,57.28
2018-08-25T17:43:02.137Z,57.56
2018-08-25T17:45:30.466Z,57.73
2018-08-25T17:47:58.783Z,57.94
2018-08-25T17:50:27.127Z,57.99
2018-08-25T17:52:55.827Z,57.93
2018-08-25T17:55:24.453Z,57.97
2018-08-25T17:57:52.797Z,57.96
2018-08-25T18:00:20.519Z,57.98
2018-08-25T18:02:48.837Z,58.24
2018-08-25T18:05:17.787Z,58.57
2018-08-25T18:07:46.113Z,58.69
2018-08-25T18:10:13.855Z,58.79
2018-08-25T18:12:43.061Z,58.71
2018-08-25T18:15:10.821Z,58.93
2018-08-25T18:17:40.139Z,59.21
2018-08-25T18:20:08.950Z,59.38
2018-08-25T18:22:36.691Z,59.51
2018-08-25T18:25:05.006Z,59.76
2018-08-25T18:27:33.367Z,59.81
2018-08-25T18:30:02.249Z,59.73
2018-08-25T18:32:30.569Z,59.83
2018-08-25T18:34:58.894Z,59.83
2018-08-25T18:37:27.243Z,59.74
2018-08-25T18:39:55.604Z,59.85
2018-08-25T18:42:23.397Z,59.67
2018-08-25T18:44:52.248Z,59.70
2018-08-25T18:47:20.557Z,59.64
2018-08-25T18:49:48.881Z,59.58
2018-08-25T18:52:17.201Z,59.29
2018-08-25T18:54:45.602Z,59.37
2018-08-25T18:57:13.967Z,59.44
2018-08-25T18:59:43.165Z,59.59
2018-08-25T19:02:11.650Z,59.60
2018-08-25T19:04:39.256Z,59.52
2018-08-25T19:07:08.493Z,59.80
2018-08-25T19:09:37.057Z,59.90
2018-08-25T19:12:05.612Z,59.80
2018-08-25T19:14:34.007Z,59.90
2018-08-25T19:17:02.403Z,59.98
2018-08-25T19:19:30.743Z,59.97
2018-08-25T19:21:59.348Z,60.19
2018-08-25T19:24:30.116Z,60.06
2018-08-25T19:27:00.918Z,60.18
2018-08-25T19:29:27.977Z,60.23
2018-08-25T19:31:56.371Z,60.32
2018-08-25T19:34:24.695Z,60.36
2018-08-25T19:36:53.002Z,60.55
2018-08-25T19:39:21.349Z,60.91
2018-08-25T19:41:49.946Z,61.45
2018-08-25T19:44:18.330Z,61.85
2018-08-25T19:46:46.728Z,62.47
2018-08-25T19:49:15.147Z,62.70
2018-08-25T19:51:43.660Z,63.19
2018-08-25T19:54:11.946Z,63.31
2018-08-25T19:56:40.338Z,63.68
2018-08-25T19:59:08.722Z,64.30
2018-08-25T20:01:37.094Z,66.89
2018-08-25T20:04:05.435Z,67.37
2018-08-25T20:06:34.006Z,68.21
2018-08-25T20:09:02.385Z,68.30
2018-08-25T20:11:30.786Z,68.31
2018-08-25T20:13:58.642Z,68.84
2018-08-25T20:16:27.432Z,69.75
2018-08-25T20:18:55.765Z,69.30
2018-08-25T20:21:24.097Z,69.94
2018-08-25T20:23:52.540Z,69.77
2018-08-25T20:26:20.931Z,69.97
2018-08-25T20:28:49.281Z,70.04
2018-08-25T20:31:19.165Z,69.93
2018-08-25T20:33:46.832Z,70.11
2018-08-25T20:36:15.803Z,70.47
2018-08-25T20:38:44.146Z,70.86
2018-08-25T20:41:12.561Z,71.27
2018-08-25T20:43:40.903Z,71.13
2018-08-25T20:46:09.256Z,71.24
2018-08-25T20:48:37.614Z,71.04
2018-08-25T20:51:05.952Z,70.84
2018-08-25T20:53:34.324Z,70.73
2018-08-25T20:56:02.041Z,70.34
2018-08-25T20:58:32.831Z,70.09
2018-08-25T21:01:00.577Z,70.20
2018-08-25T21:03:32.767Z,70.61
2018-08-25T21:06:00.136Z,70.82
2018-08-25T21:08:28.689Z,71.10
2018-08-25T21:10:57.189Z,71.29
2018-08-25T21:13:25.529Z,71.23
2018-08-25T21:15:53.976Z,71.38
2018-08-25T21:18:22.225Z,71.45
2018-08-25T21:20:50.009Z,71.43
2018-08-25T21:23:18.323Z,71.49
2018-08-25T21:25:47.238Z,71.94
2018-08-25T21:28:15.609Z,72.37
2018-08-25T21:30:43.961Z,72.57
2018-08-25T21:33:13.265Z,72.84
2018-08-25T21:35:40.609Z,73.14
2018-08-25T21:38:09.008Z,73.37
2018-08-25T21:40:36.767Z,73.87
2018-08-25T21:43:05.731Z,74.04
2018-08-25T21:45:34.059Z,74.15
2018-08-25T21:48:02.379Z,74.11
2018-08-25T21:50:30.125Z,74.05
2018-08-25T21:52:59.044Z,74.05
2018-08-25T21:55:27.403Z,74.02
2018-08-25T21:57:55.163Z,73.98
2018-08-25T22:00:23.485Z,73.88
2018-08-25T22:02:52.709Z,73.74
2018-08-25T22:05:21.040Z,73.59
2018-08-25T22:07:49.368Z,73.41
2018-08-25T22:10:17.691Z,73.56
2018-08-25T22:12:46.053Z,73.57
2018-08-25T22:15:14.381Z,73.71
2018-08-25T22:17:42.785Z,74.11
2018-08-25T22:20:11.117Z,74.15
2018-08-25T22:22:39.562Z,74.28
2018-08-25T22:25:07.247Z,74.23
2018-08-25T22:27:36.192Z,74.50
2018-08-25T22:30:04.540Z,74.78
2018-08-25T22:32:32.857Z,75.08
2018-08-25T22:35:01.237Z,74.83
2018-08-25T22:37:29.638Z,74.84
2018-08-25T22:39:57.509Z,74.91
2018-08-25T22:42:26.541Z,74.98
2018-08-25T22:44:54.682Z,74.93
2018-08-25T22:47:22.544Z,75.09
2018-08-25T22:49:52.849Z,75.19
2018-08-25T22:52:19.974Z,75.50
2018-08-25T22:54:48.342Z,75.53
2018-08-25T22:57:16.654Z,75.52
2018-08-25T22:59:45.141Z,75.49
2018-08-25T23:02:13.442Z,75.58
2018-08-25T23:04:41.804Z,75.66
2018-08-25T23:07:10.216Z,75.71
2018-08-25T23:09:38.580Z,75.57
2018-08-25T23:12:06.940Z,75.36
2018-08-25T23:14:35.546Z,75.48
2018-08-25T23:17:03.674Z,75.21
2018-08-25T23:19:32.271Z,75.28
2018-08-25T23:21:59.786Z,75.25
2018-08-25T23:24:28.687Z,74.89
2018-08-25T23:26:57.026Z,74.18
2018-08-25T23:29:25.079Z,74.37
2018-08-25T23:31:53.988Z,74.68
2018-08-25T23:34:22.319Z,74.49
2018-08-25T23:36:50.640Z,74.63
2018-08-25T23:39:18.387Z,73.96
2018-08-25T23:41:46.715Z,74.05
2018-08-25T23:44:15.626Z,73.88
2018-08-25T23:46:43.941Z,73.43
2018-08-25T23:49:12.277Z,72.79
2018-08-25T23:51:40.616Z,72.44
2018-08-25T23:54:08.919Z,72.37
2018-08-25T23:56:37.237Z,72.00
2018-08-25T23:59:06.092Z,72.09
